Cornelia, Georgia
Current Conditions -  °F | °C
As of 5:15 AM on Saturday 25 Oct 2014 (Local Time) from KTOC Reporting Station
Clear Clear  
Wind Chill: 44°   Ceiling: Unl
Heat Index: 47°   Visibility: 10mi
Dew Point: 42°   Wind: 6mph
Humidity: 84%   Direction: 340°NNW
Pressure: 30.01"   Gusts: NA
Location:  34.51°N, 83.53°W
Report Text: KTOC 250915Z AUTO 34005KT 10SM CLR 08/06 A3001 RMK AO2 T00830057
Loading
Personal Weather Stations






























Interactive Weather Map New forecast layout! Learn more

10-Day Weather Forecast

Advertisements
Track Severe Weather on mobile